sensor_id;sensor_type;location;lat;lon;timestamp;P1;durP1;ratioP1;P2;durP2;ratioP2
24961;SDS011;12992;50.884;13.668;2022-12-20T00:01:59;30.42;;;14.50;;
24961;SDS011;12992;50.884;13.668;2022-12-20T00:04:25;28.77;;;13.20;;
24961;SDS011;12992;50.884;13.668;2022-12-20T00:06:50;29.77;;;13.02;;
24961;SDS011;12992;50.884;13.668;2022-12-20T00:09:15;27.67;;;13.20;;
24961;SDS011;12992;50.884;13.668;2022-12-20T00:11:41;29.50;;;13.85;;
24961;SDS011;12992;50.884;13.668;2022-12-20T00:14:07;30.58;;;13.32;;
24961;SDS011;12992;50.884;13.668;2022-12-20T00:16:34;27.75;;;13.88;;
24961;SDS011;12992;50.884;13.668;2022-12-20T00:19:01;24.27;;;12.15;;
24961;SDS011;12992;50.884;13.668;2022-12-20T00:21:29;27.63;;;12.75;;
24961;SDS011;12992;50.884;13.668;2022-12-20T00:23:55;27.92;;;13.60;;
24961;SDS011;12992;50.884;13.668;2022-12-20T00:26:23;29.33;;;12.98;;
24961;SDS011;12992;50.884;13.668;2022-12-20T00:28:53;28.40;;;13.23;;
24961;SDS011;12992;50.884;13.668;2022-12-20T00:31:20;27.98;;;12.90;;
24961;SDS011;12992;50.884;13.668;2022-12-20T00:33:47;28.88;;;12.98;;
24961;SDS011;12992;50.884;13.668;2022-12-20T00:36:14;24.63;;;11.98;;
24961;SDS011;12992;50.884;13.668;2022-12-20T00:38:40;25.55;;;12.55;;
24961;SDS011;12992;50.884;13.668;2022-12-20T00:41:07;25.77;;;11.90;;
24961;SDS011;12992;50.884;13.668;2022-12-20T00:43:38;26.30;;;12.20;;
24961;SDS011;12992;50.884;13.668;2022-12-20T00:46:04;22.73;;;11.65;;
24961;SDS011;12992;50.884;13.668;2022-12-20T00:48:31;22.77;;;11.77;;
24961;SDS011;12992;50.884;13.668;2022-12-20T00:51:29;25.13;;;11.57;;
24961;SDS011;12992;50.884;13.668;2022-12-20T00:53:50;22.90;;;11.65;;
24961;SDS011;12992;50.884;13.668;2022-12-20T00:56:16;19.88;;;9.90;;
24961;SDS011;12992;50.884;13.668;2022-12-20T00:58:42;20.13;;;10.40;;
24961;SDS011;12992;50.884;13.668;2022-12-20T01:01:16;21.33;;;11.00;;
24961;SDS011;12992;50.884;13.668;2022-12-20T01:03:53;25.60;;;10.50;;
24961;SDS011;12992;50.884;13.668;2022-12-20T01:06:19;21.90;;;10.95;;
24961;SDS011;12992;50.884;13.668;2022-12-20T01:08:45;20.80;;;10.75;;
24961;SDS011;12992;50.884;13.668;2022-12-20T01:11:12;23.85;;;10.32;;
24961;SDS011;12992;50.884;13.668;2022-12-20T01:13:45;20.10;;;9.15;;
24961;SDS011;12992;50.884;13.668;2022-12-20T01:16:17;20.65;;;9.70;;
24961;SDS011;12992;50.884;13.668;2022-12-20T01:18:45;18.70;;;9.73;;
24961;SDS011;12992;50.884;13.668;2022-12-20T01:21:11;19.92;;;10.63;;
24961;SDS011;12992;50.884;13.668;2022-12-20T01:23:38;22.40;;;10.18;;
24961;SDS011;12992;50.884;13.668;2022-12-20T01:26:04;19.75;;;9.68;;
24961;SDS011;12992;50.884;13.668;2022-12-20T01:28:35;18.48;;;9.63;;
24961;SDS011;12992;50.884;13.668;2022-12-20T01:31:04;24.05;;;10.27;;
24961;SDS011;12992;50.884;13.668;2022-12-20T01:33:34;21.80;;;10.80;;
24961;SDS011;12992;50.884;13.668;2022-12-20T01:36:01;20.25;;;9.75;;
24961;SDS011;12992;50.884;13.668;2022-12-20T01:38:28;18.95;;;9.80;;
24961;SDS011;12992;50.884;13.668;2022-12-20T01:40:54;25.17;;;10.52;;
24961;SDS011;12992;50.884;13.668;2022-12-20T01:43:21;17.55;;;9.57;;
24961;SDS011;12992;50.884;13.668;2022-12-20T01:45:49;21.58;;;10.27;;
24961;SDS011;12992;50.884;13.668;2022-12-20T01:48:16;18.35;;;9.77;;
24961;SDS011;12992;50.884;13.668;2022-12-20T01:50:45;21.42;;;10.00;;
24961;SDS011;12992;50.884;13.668;2022-12-20T01:53:12;19.95;;;10.52;;
24961;SDS011;12992;50.884;13.668;2022-12-20T01:55:39;20.13;;;10.38;;
24961;SDS011;12992;50.884;13.668;2022-12-20T01:58:06;20.38;;;10.38;;
24961;SDS011;12992;50.884;13.668;2022-12-20T02:00:34;22.08;;;11.38;;
24961;SDS011;12992;50.884;13.668;2022-12-20T02:03:03;23.02;;;11.73;;
24961;SDS011;12992;50.884;13.668;2022-12-20T02:05:33;25.40;;;10.95;;
24961;SDS011;12992;50.884;13.668;2022-12-20T02:08:02;24.63;;;11.13;;
24961;SDS011;12992;50.884;13.668;2022-12-20T02:10:34;21.45;;;10.98;;
24961;SDS011;12992;50.884;13.668;2022-12-20T02:13:36;21.25;;;10.43;;
24961;SDS011;12992;50.884;13.668;2022-12-20T02:34:32;21.77;;;11.20;;
24961;SDS011;12992;50.884;13.668;2022-12-20T02:37:00;23.40;;;11.82;;
24961;SDS011;12992;50.884;13.668;2022-12-20T02:39:26;24.55;;;12.70;;
24961;SDS011;12992;50.884;13.668;2022-12-20T02:41:55;24.83;;;11.82;;
24961;SDS011;12992;50.884;13.668;2022-12-20T02:44:23;27.25;;;11.95;;
24961;SDS011;12992;50.884;13.668;2022-12-20T02:47:12;24.00;;;11.35;;
24961;SDS011;12992;50.884;13.668;2022-12-20T02:49:43;22.25;;;11.23;;
24961;SDS011;12992;50.884;13.668;2022-12-20T02:52:10;24.35;;;11.38;;
24961;SDS011;12992;50.884;13.668;2022-12-20T02:54:38;25.48;;;11.50;;
24961;SDS011;12992;50.884;13.668;2022-12-20T02:57:04;22.63;;;11.68;;
24961;SDS011;12992;50.884;13.668;2022-12-20T02:59:54;21.65;;;10.88;;
24961;SDS011;12992;50.884;13.668;2022-12-20T03:02:27;23.25;;;10.95;;
24961;SDS011;12992;50.884;13.668;2022-12-20T03:04:53;23.70;;;11.27;;
24961;SDS011;12992;50.884;13.668;2022-12-20T03:07:21;22.17;;;10.60;;
24961;SDS011;12992;50.884;13.668;2022-12-20T03:09:46;21.33;;;11.15;;
24961;SDS011;12992;50.884;13.668;2022-12-20T03:12:13;23.90;;;11.65;;
24961;SDS011;12992;50.884;13.668;2022-12-20T03:14:40;23.75;;;11.63;;
24961;SDS011;12992;50.884;13.668;2022-12-20T03:17:08;22.75;;;10.88;;
24961;SDS011;12992;50.884;13.668;2022-12-20T03:19:34;20.92;;;10.73;;
24961;SDS011;12992;50.884;13.668;2022-12-20T03:21:59;20.65;;;11.18;;
24961;SDS011;12992;50.884;13.668;2022-12-20T03:24:25;21.77;;;10.90;;
24961;SDS011;12992;50.884;13.668;2022-12-20T03:26:51;22.00;;;10.60;;
24961;SDS011;12992;50.884;13.668;2022-12-20T03:29:19;23.65;;;11.00;;
24961;SDS011;12992;50.884;13.668;2022-12-20T03:31:45;21.75;;;10.63;;
24961;SDS011;12992;50.884;13.668;2022-12-20T03:34:10;22.65;;;10.38;;
24961;SDS011;12992;50.884;13.668;2022-12-20T03:36:36;19.15;;;10.68;;
24961;SDS011;12992;50.884;13.668;2022-12-20T03:39:03;19.80;;;10.75;;
24961;SDS011;12992;50.884;13.668;2022-12-20T03:41:32;22.13;;;10.15;;
24961;SDS011;12992;50.884;13.668;2022-12-20T03:43:58;20.95;;;9.90;;
24961;SDS011;12992;50.884;13.668;2022-12-20T03:46:24;21.90;;;9.85;;
24961;SDS011;12992;50.884;13.668;2022-12-20T03:48:50;21.38;;;10.25;;
24961;SDS011;12992;50.884;13.668;2022-12-20T03:51:15;21.83;;;10.27;;
24961;SDS011;12992;50.884;13.668;2022-12-20T03:53:41;24.98;;;11.27;;
24961;SDS011;12992;50.884;13.668;2022-12-20T03:56:07;21.45;;;10.75;;
24961;SDS011;12992;50.884;13.668;2022-12-20T03:58:33;21.25;;;11.20;;
24961;SDS011;12992;50.884;13.668;2022-12-20T04:00:58;22.05;;;10.88;;
24961;SDS011;12992;50.884;13.668;2022-12-20T04:03:41;21.90;;;10.48;;
24961;SDS011;12992;50.884;13.668;2022-12-20T04:06:06;19.65;;;10.77;;
24961;SDS011;12992;50.884;13.668;2022-12-20T04:08:32;24.02;;;10.98;;
24961;SDS011;12992;50.884;13.668;2022-12-20T04:10:57;22.55;;;11.95;;
24961;SDS011;12992;50.884;13.668;2022-12-20T04:13:50;23.27;;;11.93;;
24961;SDS011;12992;50.884;13.668;2022-12-20T04:16:18;22.15;;;10.63;;
24961;SDS011;12992;50.884;13.668;2022-12-20T04:18:46;22.92;;;11.55;;
24961;SDS011;12992;50.884;13.668;2022-12-20T04:21:11;23.65;;;11.18;;
24961;SDS011;12992;50.884;13.668;2022-12-20T04:23:41;23.23;;;11.73;;
24961;SDS011;12992;50.884;13.668;2022-12-20T04:26:08;26.10;;;11.63;;
24961;SDS011;12992;50.884;13.668;2022-12-20T04:28:35;24.92;;;12.20;;
24961;SDS011;12992;50.884;13.668;2022-12-20T04:31:02;23.83;;;11.52;;
24961;SDS011;12992;50.884;13.668;2022-12-20T04:33:30;22.98;;;11.38;;
24961;SDS011;12992;50.884;13.668;2022-12-20T04:35:56;29.08;;;11.80;;
24961;SDS011;12992;50.884;13.668;2022-12-20T04:38:23;24.05;;;11.90;;
24961;SDS011;12992;50.884;13.668;2022-12-20T04:40:51;25.42;;;11.23;;
24961;SDS011;12992;50.884;13.668;2022-12-20T04:43:18;23.77;;;10.93;;
24961;SDS011;12992;50.884;13.668;2022-12-20T04:45:46;23.58;;;12.07;;
24961;SDS011;12992;50.884;13.668;2022-12-20T04:48:14;27.58;;;11.98;;
24961;SDS011;12992;50.884;13.668;2022-12-20T04:50:39;25.95;;;12.48;;
24961;SDS011;12992;50.884;13.668;2022-12-20T04:53:05;25.20;;;12.90;;
24961;SDS011;12992;50.884;13.668;2022-12-20T04:55:49;26.95;;;13.27;;
24961;SDS011;12992;50.884;13.668;2022-12-20T04:58:15;29.10;;;13.60;;
24961;SDS011;12992;50.884;13.668;2022-12-20T05:00:41;27.55;;;13.43;;
24961;SDS011;12992;50.884;13.668;2022-12-20T05:03:20;29.77;;;14.90;;
24961;SDS011;12992;50.884;13.668;2022-12-20T05:05:47;28.10;;;13.63;;
24961;SDS011;12992;50.884;13.668;2022-12-20T05:08:13;32.42;;;14.57;;
24961;SDS011;12992;50.884;13.668;2022-12-20T05:10:39;34.85;;;15.73;;
24961;SDS011;12992;50.884;13.668;2022-12-20T05:13:05;33.47;;;15.07;;
24961;SDS011;12992;50.884;13.668;2022-12-20T05:15:36;31.33;;;13.82;;
24961;SDS011;12992;50.884;13.668;2022-12-20T05:18:01;33.25;;;15.00;;
24961;SDS011;12992;50.884;13.668;2022-12-20T05:20:38;33.00;;;15.23;;
24961;SDS011;12992;50.884;13.668;2022-12-20T05:23:03;32.78;;;14.75;;
24961;SDS011;12992;50.884;13.668;2022-12-20T05:25:52;33.22;;;14.98;;
24961;SDS011;12992;50.884;13.668;2022-12-20T05:28:38;35.22;;;14.98;;
24961;SDS011;12992;50.884;13.668;2022-12-20T05:31:04;34.15;;;15.30;;
24961;SDS011;12992;50.884;13.668;2022-12-20T05:33:33;32.72;;;14.85;;
24961;SDS011;12992;50.884;13.668;2022-12-20T05:35:59;31.40;;;14.73;;
24961;SDS011;12992;50.884;13.668;2022-12-20T05:38:25;32.97;;;14.77;;
24961;SDS011;12992;50.884;13.668;2022-12-20T05:40:51;33.28;;;14.25;;
24961;SDS011;12992;50.884;13.668;2022-12-20T05:43:17;32.55;;;15.18;;
24961;SDS011;12992;50.884;13.668;2022-12-20T05:45:45;32.58;;;14.43;;
24961;SDS011;12992;50.884;13.668;2022-12-20T05:48:14;32.55;;;15.25;;
24961;SDS011;12992;50.884;13.668;2022-12-20T05:50:41;28.63;;;14.13;;
24961;SDS011;12992;50.884;13.668;2022-12-20T05:53:28;30.77;;;14.10;;
24961;SDS011;12992;50.884;13.668;2022-12-20T05:55:57;30.00;;;13.63;;
24961;SDS011;12992;50.884;13.668;2022-12-20T05:58:27;29.80;;;14.25;;
24961;SDS011;12992;50.884;13.668;2022-12-20T06:01:04;27.73;;;12.95;;
24961;SDS011;12992;50.884;13.668;2022-12-20T06:03:35;25.55;;;13.10;;
24961;SDS011;12992;50.884;13.668;2022-12-20T06:06:05;25.48;;;12.93;;
24961;SDS011;12992;50.884;13.668;2022-12-20T06:08:31;27.38;;;13.48;;
24961;SDS011;12992;50.884;13.668;2022-12-20T06:10:59;29.77;;;13.50;;
24961;SDS011;12992;50.884;13.668;2022-12-20T06:13:25;25.50;;;12.40;;
24961;SDS011;12992;50.884;13.668;2022-12-20T06:15:52;24.17;;;12.70;;
24961;SDS011;12992;50.884;13.668;2022-12-20T06:18:19;24.67;;;12.43;;
24961;SDS011;12992;50.884;13.668;2022-12-20T06:20:49;26.27;;;12.43;;
24961;SDS011;12992;50.884;13.668;2022-12-20T06:23:18;21.67;;;11.55;;
24961;SDS011;12992;50.884;13.668;2022-12-20T06:25:53;24.33;;;11.93;;
24961;SDS011;12992;50.884;13.668;2022-12-20T06:28:20;20.95;;;11.07;;
24961;SDS011;12992;50.884;13.668;2022-12-20T06:30:52;21.77;;;11.05;;
24961;SDS011;12992;50.884;13.668;2022-12-20T06:33:30;22.33;;;10.80;;
24961;SDS011;12992;50.884;13.668;2022-12-20T06:35:56;22.90;;;10.57;;
24961;SDS011;12992;50.884;13.668;2022-12-20T06:38:21;20.55;;;10.73;;
24961;SDS011;12992;50.884;13.668;2022-12-20T06:40:48;24.85;;;11.15;;
24961;SDS011;12992;50.884;13.668;2022-12-20T06:43:13;23.20;;;11.40;;
24961;SDS011;12992;50.884;13.668;2022-12-20T06:45:39;21.67;;;10.73;;
24961;SDS011;12992;50.884;13.668;2022-12-20T06:48:05;21.38;;;10.77;;
24961;SDS011;12992;50.884;13.668;2022-12-20T06:50:32;22.83;;;11.57;;
24961;SDS011;12992;50.884;13.668;2022-12-20T06:52:58;23.08;;;11.00;;
24961;SDS011;12992;50.884;13.668;2022-12-20T06:55:24;22.83;;;10.95;;
24961;SDS011;12992;50.884;13.668;2022-12-20T06:57:50;18.67;;;10.40;;
24961;SDS011;12992;50.884;13.668;2022-12-20T07:00:15;22.52;;;11.05;;
24961;SDS011;12992;50.884;13.668;2022-12-20T07:02:41;20.73;;;10.32;;
24961;SDS011;12992;50.884;13.668;2022-12-20T07:05:06;20.85;;;10.95;;
24961;SDS011;12992;50.884;13.668;2022-12-20T07:07:32;21.58;;;10.80;;
24961;SDS011;12992;50.884;13.668;2022-12-20T07:09:57;25.35;;;12.13;;
24961;SDS011;12992;50.884;13.668;2022-12-20T07:12:23;24.05;;;11.43;;
24961;SDS011;12992;50.884;13.668;2022-12-20T07:14:48;20.98;;;11.73;;
24961;SDS011;12992;50.884;13.668;2022-12-20T07:17:14;26.65;;;12.18;;
24961;SDS011;12992;50.884;13.668;2022-12-20T07:19:39;25.73;;;12.80;;
24961;SDS011;12992;50.884;13.668;2022-12-20T07:22:05;29.20;;;13.57;;
24961;SDS011;12992;50.884;13.668;2022-12-20T07:24:31;25.55;;;13.32;;
24961;SDS011;12992;50.884;13.668;2022-12-20T07:26:56;28.23;;;12.70;;
24961;SDS011;12992;50.884;13.668;2022-12-20T07:29:22;24.48;;;12.02;;
24961;SDS011;12992;50.884;13.668;2022-12-20T07:31:48;25.85;;;12.52;;
24961;SDS011;12992;50.884;13.668;2022-12-20T07:34:13;26.35;;;13.05;;
24961;SDS011;12992;50.884;13.668;2022-12-20T07:36:38;26.20;;;12.77;;
24961;SDS011;12992;50.884;13.668;2022-12-20T07:39:04;25.60;;;12.85;;
24961;SDS011;12992;50.884;13.668;2022-12-20T07:41:29;24.65;;;12.70;;
24961;SDS011;12992;50.884;13.668;2022-12-20T07:43:54;26.35;;;13.45;;
24961;SDS011;12992;50.884;13.668;2022-12-20T07:46:22;23.63;;;12.25;;
24961;SDS011;12992;50.884;13.668;2022-12-20T07:48:47;23.38;;;12.43;;
24961;SDS011;12992;50.884;13.668;2022-12-20T07:51:18;23.08;;;11.27;;
24961;SDS011;12992;50.884;13.668;2022-12-20T07:54:05;23.92;;;12.30;;
24961;SDS011;12992;50.884;13.668;2022-12-20T07:56:42;26.65;;;13.52;;
24961;SDS011;12992;50.884;13.668;2022-12-20T07:59:11;25.33;;;12.65;;
24961;SDS011;12992;50.884;13.668;2022-12-20T08:01:40;27.42;;;12.55;;
24961;SDS011;12992;50.884;13.668;2022-12-20T08:04:10;23.77;;;11.60;;
24961;SDS011;12992;50.884;13.668;2022-12-20T08:06:38;24.90;;;12.32;;
24961;SDS011;12992;50.884;13.668;2022-12-20T08:09:05;24.52;;;12.15;;
24961;SDS011;12992;50.884;13.668;2022-12-20T08:11:30;24.33;;;12.38;;
24961;SDS011;12992;50.884;13.668;2022-12-20T08:13:59;25.65;;;13.68;;
24961;SDS011;12992;50.884;13.668;2022-12-20T08:16:24;25.50;;;12.68;;
24961;SDS011;12992;50.884;13.668;2022-12-20T08:18:50;25.17;;;12.85;;
24961;SDS011;12992;50.884;13.668;2022-12-20T08:21:16;24.08;;;12.73;;
24961;SDS011;12992;50.884;13.668;2022-12-20T08:23:41;25.35;;;12.38;;
24961;SDS011;12992;50.884;13.668;2022-12-20T08:26:06;25.65;;;12.82;;
24961;SDS011;12992;50.884;13.668;2022-12-20T08:28:32;28.77;;;16.02;;
24961;SDS011;12992;50.884;13.668;2022-12-20T08:31:02;26.35;;;13.52;;
24961;SDS011;12992;50.884;13.668;2022-12-20T08:33:29;26.08;;;13.68;;
24961;SDS011;12992;50.884;13.668;2022-12-20T08:35:57;24.98;;;13.82;;
24961;SDS011;12992;50.884;13.668;2022-12-20T08:38:25;26.25;;;13.85;;
24961;SDS011;12992;50.884;13.668;2022-12-20T08:40:51;26.45;;;13.00;;
24961;SDS011;12992;50.884;13.668;2022-12-20T08:43:16;24.55;;;12.50;;
24961;SDS011;12992;50.884;13.668;2022-12-20T08:45:42;25.70;;;12.75;;
24961;SDS011;12992;50.884;13.668;2022-12-20T08:48:07;22.90;;;12.27;;
24961;SDS011;12992;50.884;13.668;2022-12-20T08:50:32;25.20;;;12.70;;
24961;SDS011;12992;50.884;13.668;2022-12-20T08:52:58;24.42;;;12.43;;
24961;SDS011;12992;50.884;13.668;2022-12-20T08:55:23;26.35;;;12.55;;
24961;SDS011;12992;50.884;13.668;2022-12-20T08:57:48;26.88;;;13.48;;
24961;SDS011;12992;50.884;13.668;2022-12-20T09:00:14;23.58;;;12.93;;
24961;SDS011;12992;50.884;13.668;2022-12-20T09:02:39;24.33;;;13.07;;
24961;SDS011;12992;50.884;13.668;2022-12-20T09:05:05;26.67;;;13.73;;
24961;SDS011;12992;50.884;13.668;2022-12-20T09:07:31;28.83;;;12.63;;
24961;SDS011;12992;50.884;13.668;2022-12-20T09:09:56;26.73;;;13.50;;
24961;SDS011;12992;50.884;13.668;2022-12-20T09:12:21;24.33;;;12.73;;
24961;SDS011;12992;50.884;13.668;2022-12-20T09:14:47;25.58;;;11.90;;
24961;SDS011;12992;50.884;13.668;2022-12-20T09:17:12;25.08;;;12.90;;
24961;SDS011;12992;50.884;13.668;2022-12-20T09:19:38;23.02;;;12.50;;
24961;SDS011;12992;50.884;13.668;2022-12-20T09:22:03;30.17;;;12.35;;
24961;SDS011;12992;50.884;13.668;2022-12-20T09:24:29;22.90;;;11.90;;
24961;SDS011;12992;50.884;13.668;2022-12-20T09:26:54;24.95;;;12.32;;
24961;SDS011;12992;50.884;13.668;2022-12-20T09:29:19;22.90;;;11.90;;
24961;SDS011;12992;50.884;13.668;2022-12-20T09:31:45;24.27;;;11.93;;
24961;SDS011;12992;50.884;13.668;2022-12-20T09:34:10;24.02;;;12.20;;
24961;SDS011;12992;50.884;13.668;2022-12-20T09:36:35;23.63;;;12.60;;
24961;SDS011;12992;50.884;13.668;2022-12-20T09:39:02;23.85;;;12.25;;
24961;SDS011;12992;50.884;13.668;2022-12-20T09:41:32;24.23;;;13.52;;
24961;SDS011;12992;50.884;13.668;2022-12-20T09:44:18;32.03;;;15.18;;
24961;SDS011;12992;50.884;13.668;2022-12-20T09:47:12;30.83;;;15.00;;
24961;SDS011;12992;50.884;13.668;2022-12-20T09:49:41;27.20;;;14.27;;
24961;SDS011;12992;50.884;13.668;2022-12-20T09:55:00;28.40;;;13.95;;
24961;SDS011;12992;50.884;13.668;2022-12-20T10:00:26;24.05;;;12.45;;
24961;SDS011;12992;50.884;13.668;2022-12-20T10:02:52;26.15;;;13.55;;
24961;SDS011;12992;50.884;13.668;2022-12-20T10:05:24;31.27;;;15.77;;
24961;SDS011;12992;50.884;13.668;2022-12-20T10:10:46;31.05;;;15.88;;
24961;SDS011;12992;50.884;13.668;2022-12-20T10:15:59;32.53;;;15.75;;
24961;SDS011;12992;50.884;13.668;2022-12-20T10:24:15;35.65;;;15.73;;
24961;SDS011;12992;50.884;13.668;2022-12-20T10:26:44;36.97;;;17.42;;
24961;SDS011;12992;50.884;13.668;2022-12-20T10:29:13;36.33;;;18.75;;
24961;SDS011;12992;50.884;13.668;2022-12-20T10:31:38;46.78;;;23.05;;
24961;SDS011;12992;50.884;13.668;2022-12-20T10:34:04;41.80;;;19.88;;
24961;SDS011;12992;50.884;13.668;2022-12-20T10:36:31;35.20;;;17.45;;
24961;SDS011;12992;50.884;13.668;2022-12-20T10:39:03;27.88;;;14.15;;
24961;SDS011;12992;50.884;13.668;2022-12-20T10:41:33;31.20;;;15.35;;
24961;SDS011;12992;50.884;13.668;2022-12-20T10:44:25;28.70;;;14.07;;
24961;SDS011;12992;50.884;13.668;2022-12-20T10:46:55;27.42;;;13.50;;
24961;SDS011;12992;50.884;13.668;2022-12-20T10:49:26;24.70;;;12.80;;
24961;SDS011;12992;50.884;13.668;2022-12-20T10:51:56;26.75;;;12.25;;
24961;SDS011;12992;50.884;13.668;2022-12-20T10:54:29;27.10;;;12.50;;
24961;SDS011;12992;50.884;13.668;2022-12-20T10:59:54;24.02;;;12.13;;
24961;SDS011;12992;50.884;13.668;2022-12-20T11:04:58;27.75;;;14.05;;
24961;SDS011;12992;50.884;13.668;2022-12-20T11:07:31;27.48;;;12.77;;
24961;SDS011;12992;50.884;13.668;2022-12-20T11:10:02;27.27;;;13.32;;
24961;SDS011;12992;50.884;13.668;2022-12-20T11:12:51;29.17;;;13.73;;
24961;SDS011;12992;50.884;13.668;2022-12-20T11:15:19;27.02;;;14.00;;
24961;SDS011;12992;50.884;13.668;2022-12-20T11:17:48;30.10;;;14.40;;
24961;SDS011;12992;50.884;13.668;2022-12-20T11:20:32;25.08;;;12.32;;
24961;SDS011;12992;50.884;13.668;2022-12-20T11:23:05;26.65;;;12.13;;
24961;SDS011;12992;50.884;13.668;2022-12-20T11:34:30;23.10;;;12.65;;
24961;SDS011;12992;50.884;13.668;2022-12-20T11:42:42;23.38;;;11.23;;
24961;SDS011;12992;50.884;13.668;2022-12-20T11:51:44;22.98;;;11.65;;
24961;SDS011;12992;50.884;13.668;2022-12-20T11:56:47;31.10;;;13.52;;
24961;SDS011;12992;50.884;13.668;2022-12-20T11:59:20;28.60;;;12.77;;
24961;SDS011;12992;50.884;13.668;2022-12-20T12:04:44;29.58;;;13.02;;
24961;SDS011;12992;50.884;13.668;2022-12-20T12:07:21;26.20;;;12.88;;
24961;SDS011;12992;50.884;13.668;2022-12-20T12:10:03;28.38;;;13.60;;
24961;SDS011;12992;50.884;13.668;2022-12-20T12:12:51;25.40;;;12.80;;
24961;SDS011;12992;50.884;13.668;2022-12-20T12:18:00;25.05;;;13.32;;
24961;SDS011;12992;50.884;13.668;2022-12-20T12:20:34;27.90;;;13.90;;
24961;SDS011;12992;50.884;13.668;2022-12-20T12:23:04;26.15;;;13.48;;
24961;SDS011;12992;50.884;13.668;2022-12-20T12:25:40;25.85;;;13.55;;
24961;SDS011;12992;50.884;13.668;2022-12-20T12:28:06;28.05;;;12.88;;
24961;SDS011;12992;50.884;13.668;2022-12-20T12:30:37;25.33;;;13.38;;
24961;SDS011;12992;50.884;13.668;2022-12-20T12:33:10;28.42;;;13.77;;
24961;SDS011;12992;50.884;13.668;2022-12-20T12:35:45;30.25;;;13.73;;
24961;SDS011;12992;50.884;13.668;2022-12-20T12:38:32;30.98;;;13.68;;
24961;SDS011;12992;50.884;13.668;2022-12-20T12:43:56;27.20;;;13.07;;
24961;SDS011;12992;50.884;13.668;2022-12-20T12:46:29;24.80;;;13.30;;
24961;SDS011;12992;50.884;13.668;2022-12-20T12:49:17;31.52;;;13.85;;
24961;SDS011;12992;50.884;13.668;2022-12-20T12:51:49;31.08;;;12.68;;
24961;SDS011;12992;50.884;13.668;2022-12-20T12:54:18;30.65;;;13.25;;
24961;SDS011;12992;50.884;13.668;2022-12-20T12:56:48;26.85;;;12.27;;
24961;SDS011;12992;50.884;13.668;2022-12-20T13:04:28;24.80;;;12.70;;
24961;SDS011;12992;50.884;13.668;2022-12-20T13:07:24;27.75;;;13.38;;
24961;SDS011;12992;50.884;13.668;2022-12-20T13:09:56;27.53;;;13.83;;
24961;SDS011;12992;50.884;13.668;2022-12-20T13:17:49;29.15;;;13.70;;
24961;SDS011;12992;50.884;13.668;2022-12-20T13:20:25;29.30;;;14.15;;
24961;SDS011;12992;50.884;13.668;2022-12-20T13:25:32;25.25;;;12.77;;
24961;SDS011;12992;50.884;13.668;2022-12-20T13:30:40;28.00;;;14.02;;
24961;SDS011;12992;50.884;13.668;2022-12-20T13:36:49;25.45;;;13.30;;
24961;SDS011;12992;50.884;13.668;2022-12-20T13:39:11;28.77;;;13.27;;
24961;SDS011;12992;50.884;13.668;2022-12-20T13:41:50;26.58;;;12.43;;
24961;SDS011;12992;50.884;13.668;2022-12-20T13:44:35;25.90;;;12.70;;
24961;SDS011;12992;50.884;13.668;2022-12-20T13:47:06;24.65;;;12.55;;
24961;SDS011;12992;50.884;13.668;2022-12-20T13:49:45;30.25;;;12.75;;
24961;SDS011;12992;50.884;13.668;2022-12-20T13:52:21;26.83;;;12.60;;
24961;SDS011;12992;50.884;13.668;2022-12-20T13:54:52;25.05;;;12.02;;
24961;SDS011;12992;50.884;13.668;2022-12-20T13:57:25;23.02;;;11.65;;
24961;SDS011;12992;50.884;13.668;2022-12-20T13:59:56;23.73;;;12.05;;
24961;SDS011;12992;50.884;13.668;2022-12-20T14:02:28;23.67;;;11.85;;
24961;SDS011;12992;50.884;13.668;2022-12-20T14:04:59;21.42;;;11.38;;
24961;SDS011;12992;50.884;13.668;2022-12-20T14:07:28;21.08;;;11.25;;
24961;SDS011;12992;50.884;13.668;2022-12-20T14:10:00;21.83;;;10.45;;
24961;SDS011;12992;50.884;13.668;2022-12-20T14:12:27;24.17;;;11.35;;
24961;SDS011;12992;50.884;13.668;2022-12-20T14:14:53;27.17;;;12.45;;
24961;SDS011;12992;50.884;13.668;2022-12-20T14:17:26;24.27;;;11.32;;
24961;SDS011;12992;50.884;13.668;2022-12-20T14:22:36;24.20;;;11.07;;
24961;SDS011;12992;50.884;13.668;2022-12-20T14:25:04;23.40;;;11.75;;
24961;SDS011;12992;50.884;13.668;2022-12-20T14:27:33;23.02;;;10.88;;
24961;SDS011;12992;50.884;13.668;2022-12-20T14:30:02;22.65;;;11.13;;
24961;SDS011;12992;50.884;13.668;2022-12-20T14:32:29;21.80;;;10.95;;
24961;SDS011;12992;50.884;13.668;2022-12-20T14:34:55;25.58;;;12.07;;
24961;SDS011;12992;50.884;13.668;2022-12-20T14:37:25;24.85;;;11.73;;
24961;SDS011;12992;50.884;13.668;2022-12-20T14:39:59;24.30;;;12.18;;
24961;SDS011;12992;50.884;13.668;2022-12-20T14:42:34;27.92;;;11.90;;
24961;SDS011;12992;50.884;13.668;2022-12-20T14:47:33;25.30;;;11.43;;
24961;SDS011;12992;50.884;13.668;2022-12-20T14:49:59;23.02;;;11.27;;
24961;SDS011;12992;50.884;13.668;2022-12-20T14:52:36;22.27;;;11.60;;
24961;SDS011;12992;50.884;13.668;2022-12-20T14:55:06;25.35;;;12.82;;
24961;SDS011;12992;50.884;13.668;2022-12-20T14:57:47;28.10;;;13.27;;
24961;SDS011;12992;50.884;13.668;2022-12-20T15:00:19;23.80;;;12.15;;
24961;SDS011;12992;50.884;13.668;2022-12-20T15:10:38;28.35;;;13.48;;
24961;SDS011;12992;50.884;13.668;2022-12-20T15:13:16;29.05;;;13.45;;
24961;SDS011;12992;50.884;13.668;2022-12-20T15:15:43;27.30;;;13.50;;
24961;SDS011;12992;50.884;13.668;2022-12-20T15:18:16;25.30;;;13.00;;
24961;SDS011;12992;50.884;13.668;2022-12-20T15:20:43;26.38;;;13.98;;
24961;SDS011;12992;50.884;13.668;2022-12-20T15:23:12;26.92;;;13.05;;
24961;SDS011;12992;50.884;13.668;2022-12-20T15:25:40;27.15;;;13.60;;
24961;SDS011;12992;50.884;13.668;2022-12-20T15:28:12;27.73;;;13.75;;
24961;SDS011;12992;50.884;13.668;2022-12-20T15:30:43;25.73;;;13.15;;
24961;SDS011;12992;50.884;13.668;2022-12-20T15:33:13;26.58;;;13.32;;
24961;SDS011;12992;50.884;13.668;2022-12-20T15:35:43;28.63;;;12.88;;
24961;SDS011;12992;50.884;13.668;2022-12-20T15:38:28;25.30;;;13.40;;
24961;SDS011;12992;50.884;13.668;2022-12-20T15:40:54;27.70;;;13.68;;
24961;SDS011;12992;50.884;13.668;2022-12-20T15:43:37;29.33;;;13.98;;
24961;SDS011;12992;50.884;13.668;2022-12-20T15:46:03;31.52;;;13.32;;
24961;SDS011;12992;50.884;13.668;2022-12-20T15:48:28;28.52;;;14.18;;
24961;SDS011;12992;50.884;13.668;2022-12-20T15:50:55;25.10;;;13.15;;
24961;SDS011;12992;50.884;13.668;2022-12-20T15:53:31;24.80;;;12.48;;
24961;SDS011;12992;50.884;13.668;2022-12-20T15:55:57;33.50;;;13.43;;
24961;SDS011;12992;50.884;13.668;2022-12-20T15:58:24;31.55;;;14.13;;
24961;SDS011;12992;50.884;13.668;2022-12-20T16:00:52;30.40;;;13.98;;
24961;SDS011;12992;50.884;13.668;2022-12-20T16:03:21;28.13;;;13.10;;
24961;SDS011;12992;50.884;13.668;2022-12-20T16:05:48;30.40;;;14.40;;
24961;SDS011;12992;50.884;13.668;2022-12-20T16:08:15;28.75;;;14.32;;